createdAt,value
2022-10-22T00:01:04.908Z,96888.19
2022-10-22T00:03:31.838Z,96879.78
2022-10-22T00:06:00.887Z,96891.34
2022-10-22T00:08:27.544Z,96898.00
2022-10-22T00:10:56.438Z,96902.69
2022-10-22T00:13:25.604Z,96906.84
2022-10-22T00:15:52.130Z,96903.44
2022-10-22T00:18:21.039Z,96898.91
2022-10-22T00:20:47.991Z,96895.16
2022-10-22T00:23:14.509Z,96890.59
2022-10-22T00:25:41.145Z,96881.84
2022-10-22T00:28:11.523Z,96881.84
2022-10-22T00:30:43.303Z,96887.41
2022-10-22T00:33:12.492Z,96882.28
2022-10-22T00:35:41.499Z,96887.09
2022-10-22T00:38:08.099Z,96881.19
2022-10-22T00:40:35.059Z,96880.22
2022-10-22T00:43:01.655Z,96878.28
2022-10-22T00:45:28.921Z,96882.44
2022-10-22T00:48:16.353Z,96879.13
2022-10-22T00:50:47.661Z,96897.13
2022-10-22T00:53:18.862Z,96895.72
2022-10-22T00:55:51.778Z,96895.41
2022-10-22T00:58:22.588Z,96910.44
2022-10-22T01:00:49.653Z,96912.09
2022-10-22T01:03:16.572Z,96916.31
2022-10-22T01:05:51.557Z,96908.59
2022-10-22T01:08:52.146Z,96889.84
2022-10-22T01:11:27.725Z,96893.84
2022-10-22T01:14:21.852Z,96873.06
2022-10-22T01:17:03.478Z,96882.97
2022-10-22T01:19:50.297Z,96880.34
2022-10-22T01:22:32.866Z,96869.56
2022-10-22T01:25:32.805Z,96872.72
2022-10-22T01:28:42.115Z,96865.09
2022-10-22T01:31:12.448Z,96862.59
2022-10-22T01:33:40.325Z,96854.09
2022-10-22T01:36:12.166Z,96865.22
2022-10-22T01:38:42.158Z,96860.72
2022-10-22T01:41:11.058Z,96860.16
2022-10-22T01:43:37.657Z,96866.38
2022-10-22T01:46:07.766Z,96871.19
2022-10-22T01:48:46.095Z,96867.13
2022-10-22T01:51:50.599Z,96872.41
2022-10-22T01:54:47.760Z,96873.16
2022-10-22T01:57:55.232Z,96883.50
2022-10-22T02:00:24.925Z,96881.09
2022-10-22T02:03:30.456Z,96878.50
2022-10-22T02:06:05.340Z,96905.06
2022-10-22T02:08:33.939Z,96892.88
2022-10-22T02:11:01.628Z,96889.81
2022-10-22T02:13:36.429Z,96898.13
2022-10-22T02:16:07.396Z,96897.66
2022-10-22T02:18:39.471Z,96905.06
2022-10-22T02:23:36.318Z,96904.09
2022-10-22T02:26:09.866Z,96906.41
2022-10-22T02:28:43.559Z,96905.19
2022-10-22T02:31:16.687Z,96903.53
2022-10-22T02:33:47.936Z,96888.84
2022-10-22T02:36:17.254Z,96897.31
2022-10-22T02:38:51.426Z,96893.97
2022-10-22T02:41:21.237Z,96901.69
2022-10-22T02:43:54.313Z,96899.53
2022-10-22T02:46:23.984Z,96894.84
2022-10-22T02:48:50.519Z,96910.19
2022-10-22T02:51:19.813Z,96897.22
2022-10-22T02:53:46.705Z,96913.56
2022-10-22T02:56:14.228Z,96915.09
2022-10-22T02:58:40.789Z,96920.88
2022-10-22T03:01:08.685Z,96920.22
2022-10-22T03:03:38.478Z,96905.81
2022-10-22T03:06:05.267Z,96904.28
2022-10-22T03:08:32.329Z,96903.09
2022-10-22T03:11:00.958Z,96897.75
2022-10-22T03:13:27.480Z,96893.81
2022-10-22T03:15:54.044Z,96891.66
2022-10-22T03:18:22.932Z,96896.25
2022-10-22T03:21:06.105Z,96905.19
2022-10-22T03:23:35.640Z,96886.75
2022-10-22T03:26:02.369Z,96893.53
2022-10-22T03:28:31.412Z,96890.03
2022-10-22T03:30:57.983Z,96899.28
2022-10-22T03:33:24.521Z,96904.94
2022-10-22T03:35:51.152Z,96898.41
2022-10-22T03:38:22.607Z,96916.19
2022-10-22T03:40:49.671Z,96913.47
2022-10-22T03:43:17.113Z,96917.25
2022-10-22T03:45:43.786Z,96918.34
2022-10-22T03:48:12.637Z,96907.13
2022-10-22T03:50:39.129Z,96908.31
2022-10-22T03:53:07.198Z,96913.75
2022-10-22T03:55:36.004Z,96924.66
2022-10-22T03:58:05.337Z,96922.72
2022-10-22T04:00:32.616Z,96922.84
2022-10-22T04:03:01.464Z,96931.66
2022-10-22T04:05:28.089Z,96925.00
2022-10-22T04:07:54.854Z,96925.44
2022-10-22T04:10:21.408Z,96927.00
2022-10-22T04:12:50.678Z,96938.78
2022-10-22T04:15:17.538Z,96939.53
2022-10-22T04:17:46.583Z,96933.66
2022-10-22T04:20:13.510Z,96932.03
2022-10-22T04:22:40.067Z,96957.44
2022-10-22T04:25:07.141Z,96963.53
2022-10-22T04:27:36.341Z,96954.81
2022-10-22T04:30:05.399Z,96953.19
2022-10-22T04:32:34.487Z,96957.53
2022-10-22T04:35:01.020Z,96964.41
2022-10-22T04:37:27.930Z,96965.81
2022-10-22T04:39:58.158Z,96955.25
2022-10-22T04:42:27.428Z,96956.09
2022-10-22T04:44:53.963Z,96957.00
2022-10-22T04:47:22.891Z,96963.66
2022-10-22T04:49:49.425Z,96959.59
2022-10-22T04:52:18.951Z,96965.38
2022-10-22T04:54:47.781Z,96962.97
2022-10-22T04:57:14.594Z,96985.13
2022-10-22T04:59:41.548Z,96990.13
2022-10-22T05:02:08.636Z,96994.38
2022-10-22T05:04:35.223Z,96984.38
2022-10-22T05:07:01.862Z,96987.19
2022-10-22T05:09:30.632Z,96980.88
2022-10-22T05:11:57.168Z,96982.06
2022-10-22T05:14:25.142Z,96977.38
2022-10-22T05:16:52.952Z,96986.19
2022-10-22T05:19:33.361Z,96990.25
2022-10-22T05:22:02.355Z,96988.16
2022-10-22T05:24:32.770Z,96994.06
2022-10-22T05:27:02.860Z,97000.28
2022-10-22T05:29:36.680Z,97008.78
2022-10-22T05:32:05.593Z,97015.00
2022-10-22T05:34:36.857Z,97007.38
2022-10-22T05:37:06.162Z,97013.47
2022-10-22T05:39:36.846Z,97018.16
2022-10-22T05:42:06.689Z,97010.88
2022-10-22T05:44:33.373Z,97007.47
2022-10-22T05:46:59.993Z,97008.47
2022-10-22T05:49:31.406Z,97021.00
2022-10-22T05:51:57.962Z,97020.25
2022-10-22T05:54:24.481Z,97025.13
2022-10-22T05:56:51.198Z,97015.00
2022-10-22T05:59:17.885Z,97023.50
2022-10-22T06:01:44.680Z,97021.34
2022-10-22T06:04:12.980Z,97021.13
2022-10-22T06:06:49.041Z,97020.78
2022-10-22T06:09:33.735Z,97018.81
2022-10-22T06:12:00.347Z,97002.25
2022-10-22T06:14:27.870Z,97011.50
2022-10-22T06:16:55.201Z,97015.44
2022-10-22T06:19:23.102Z,97034.84
2022-10-22T06:21:51.961Z,97040.75
2022-10-22T06:24:20.700Z,97035.59
2022-10-22T06:26:50.920Z,97048.47
2022-10-22T06:29:17.754Z,97048.81
2022-10-22T06:31:46.837Z,97046.41
2022-10-22T06:34:18.974Z,97058.72
2022-10-22T06:36:46.588Z,97061.78
2022-10-22T06:39:17.029Z,97058.63
2022-10-22T06:41:45.963Z,97057.88
2022-10-22T06:44:15.561Z,97070.06
2022-10-22T06:46:43.571Z,97062.56
2022-10-22T06:49:14.126Z,97079.34
2022-10-22T06:51:40.936Z,97076.88
2022-10-22T06:54:07.604Z,97081.09
2022-10-22T06:56:34.130Z,97085.34
2022-10-22T06:59:00.690Z,97087.78
2022-10-22T07:01:31.023Z,97097.03
2022-10-22T07:03:57.709Z,97086.13
2022-10-22T07:06:25.809Z,97100.19
2022-10-22T07:08:58.471Z,97096.94
2022-10-22T07:11:28.666Z,97093.19
2022-10-22T07:13:57.102Z,97097.78
2022-10-22T07:16:26.888Z,97097.03
2022-10-22T07:18:58.782Z,97095.16
2022-10-22T07:21:26.556Z,97100.19
2022-10-22T07:23:53.429Z,97094.81
2022-10-22T07:26:20.447Z,97102.47
2022-10-22T07:28:48.093Z,97110.56
2022-10-22T07:31:16.036Z,97112.84
2022-10-22T07:33:42.986Z,97117.19
2022-10-22T07:36:17.746Z,97120.56
2022-10-22T07:38:54.157Z,97122.75
2022-10-22T07:41:20.647Z,97122.88
2022-10-22T07:43:49.460Z,97127.66
2022-10-22T07:46:16.362Z,97134.44
2022-10-22T07:48:45.479Z,97135.44
2022-10-22T07:51:17.100Z,97137.91
2022-10-22T07:53:43.752Z,97127.06
2022-10-22T07:56:10.403Z,97130.78
2022-10-22T07:58:39.782Z,97144.44
2022-10-22T08:01:06.541Z,97131.81
2022-10-22T08:03:33.441Z,97130.50
2022-10-22T08:06:01.020Z,97134.03
2022-10-22T08:08:30.930Z,97124.84
2022-10-22T08:10:59.912Z,97123.59
2022-10-22T08:13:27.603Z,97116.91
2022-10-22T08:15:57.327Z,97124.19
2022-10-22T08:18:24.602Z,97128.94
2022-10-22T08:20:51.768Z,97120.25
2022-10-22T08:23:18.793Z,97126.50
2022-10-22T08:25:47.638Z,97125.59
2022-10-22T08:28:18.626Z,97126.97
2022-10-22T08:30:50.540Z,97126.69
2022-10-22T08:33:19.404Z,97127.09
2022-10-22T08:35:50.466Z,97109.38
2022-10-22T08:38:20.849Z,97125.47
2022-10-22T08:40:51.823Z,97121.03
2022-10-22T08:43:24.616Z,97125.31
2022-10-22T08:46:00.243Z,97126.25
2022-10-22T08:48:49.531Z,97127.69
2022-10-22T08:51:25.452Z,97125.41
2022-10-22T08:54:40.458Z,97132.88
2022-10-22T08:57:09.432Z,97129.88
2022-10-22T08:59:47.728Z,97130.31
2022-10-22T09:02:30.416Z,97138.13
2022-10-22T09:05:15.185Z,97141.50
2022-10-22T09:07:44.154Z,97148.06
2022-10-22T09:10:12.995Z,97146.28
2022-10-22T09:12:39.950Z,97139.16
2022-10-22T09:15:12.574Z,97140.91
2022-10-22T09:17:44.875Z,97147.50
2022-10-22T09:20:26.785Z,97139.72
2022-10-22T09:23:05.192Z,97145.59
2022-10-22T09:25:36.283Z,97142.09
2022-10-22T09:28:03.500Z,97139.34
2022-10-22T09:30:37.981Z,97149.22
2022-10-22T09:33:07.487Z,97150.75
2022-10-22T09:35:45.421Z,97150.44
2022-10-22T09:38:14.335Z,97157.63
2022-10-22T09:40:55.759Z,97155.47
2022-10-22T09:43:23.110Z,97152.13
2022-10-22T09:45:57.392Z,97159.34
2022-10-22T09:48:34.345Z,97160.38
2022-10-22T09:51:07.107Z,97161.03
2022-10-22T09:53:42.225Z,97151.44
2022-10-22T09:56:27.678Z,97154.41
2022-10-22T09:58:57.223Z,97161.28
2022-10-22T10:01:35.532Z,97159.44
2022-10-22T10:04:10.268Z,97159.31
2022-10-22T10:06:40.695Z,97163.72
2022-10-22T10:09:16.641Z,97162.03
2022-10-22T10:11:49.430Z,97165.56
2022-10-22T10:14:25.994Z,97165.41
2022-10-22T10:17:10.822Z,97167.03
2022-10-22T10:19:37.706Z,97169.97
2022-10-22T10:22:32.356Z,97165.50
2022-10-22T10:25:23.316Z,97172.03
2022-10-22T10:27:56.037Z,97164.66
2022-10-22T10:30:26.460Z,97169.88
2022-10-22T10:33:05.018Z,97182.78
2022-10-22T10:35:36.618Z,97180.03
2022-10-22T10:38:17.599Z,97178.03
2022-10-22T10:40:57.935Z,97172.41
2022-10-22T10:44:01.851Z,97180.88
2022-10-22T10:46:44.142Z,97177.78
2022-10-22T10:49:19.069Z,97166.72
2022-10-22T10:52:00.011Z,97167.22
2022-10-22T10:54:41.987Z,97167.63
2022-10-22T10:57:36.749Z,97175.78
2022-10-22T11:00:12.698Z,97175.63
2022-10-22T11:03:08.696Z,97172.03
2022-10-22T11:05:42.100Z,97168.97
2022-10-22T11:08:28.104Z,97171.00
2022-10-22T11:11:12.145Z,97163.06
2022-10-22T11:14:05.029Z,97165.94
2022-10-22T11:16:45.112Z,97160.03
2022-10-22T11:19:52.310Z,97157.06
2022-10-22T11:22:25.789Z,97157.09
2022-10-22T11:25:02.583Z,97151.78
2022-10-22T11:27:29.067Z,97158.69
2022-10-22T11:30:15.463Z,97151.34
2022-10-22T11:32:47.712Z,97147.34
2022-10-22T11:35:28.663Z,97145.97
2022-10-22T11:37:57.084Z,97156.91
2022-10-22T11:40:29.549Z,97156.34
2022-10-22T11:43:05.822Z,97151.72
2022-10-22T11:45:42.918Z,97143.16
2022-10-22T11:48:19.317Z,97152.59
2022-10-22T11:50:49.031Z,97148.59
2022-10-22T11:53:15.478Z,97145.84
2022-10-22T11:55:51.767Z,97140.47
2022-10-22T11:58:31.105Z,97134.50
2022-10-22T12:01:09.759Z,97134.75
2022-10-22T12:03:47.915Z,97137.31
2022-10-22T12:06:18.475Z,97141.78
2022-10-22T12:08:57.137Z,97136.63
2022-10-22T12:11:47.770Z,97139.34
2022-10-22T12:14:34.716Z,97129.25
2022-10-22T12:17:18.879Z,97131.91
2022-10-22T12:20:02.372Z,97138.34
2022-10-22T12:22:32.254Z,97140.56
2022-10-22T12:25:08.580Z,97134.81
2022-10-22T12:27:36.427Z,97131.25
2022-10-22T12:30:23.683Z,97126.91
2022-10-22T12:33:03.718Z,97137.31
2022-10-22T12:35:44.540Z,97131.34
2022-10-22T12:38:20.228Z,97129.59
2022-10-22T12:40:50.265Z,97126.81
2022-10-22T12:43:19.754Z,97117.09
2022-10-22T12:45:50.551Z,97118.03
2022-10-22T12:48:44.208Z,97120.25
2022-10-22T12:51:19.642Z,97117.66
2022-10-22T12:53:54.432Z,97110.69
2022-10-22T12:56:30.227Z,97117.63
2022-10-22T12:59:03.751Z,97110.75
2022-10-22T13:01:36.615Z,97113.00
2022-10-22T13:04:21.982Z,97109.88
2022-10-22T13:07:03.998Z,97112.81
2022-10-22T13:09:41.333Z,97088.63
2022-10-22T13:12:14.703Z,97107.50
2022-10-22T13:14:41.261Z,97106.13
2022-10-22T13:17:50.681Z,97103.28
2022-10-22T13:20:23.329Z,97097.38
2022-10-22T13:22:55.740Z,97091.72
2022-10-22T13:25:34.073Z,97101.03
2022-10-22T13:28:20.312Z,97086.88
2022-10-22T13:30:58.941Z,97083.38
2022-10-22T13:33:36.289Z,97094.09
2022-10-22T13:36:04.097Z,97089.94
2022-10-22T13:38:33.491Z,97087.66
2022-10-22T13:41:03.280Z,97080.66
2022-10-22T13:43:29.817Z,97075.38
2022-10-22T13:45:59.717Z,97080.84
2022-10-22T13:48:30.716Z,97079.34
2022-10-22T13:50:57.673Z,97071.88
2022-10-22T13:53:26.451Z,97075.81
2022-10-22T13:55:53.358Z,97077.22
2022-10-22T13:58:24.611Z,97074.41
2022-10-22T14:01:02.927Z,97068.91
2022-10-22T14:03:32.988Z,97074.59
2022-10-22T14:06:00.004Z,97077.09
2022-10-22T14:08:30.384Z,97070.59
2022-10-22T14:10:59.213Z,97055.72
2022-10-22T14:13:31.867Z,97059.31
2022-10-22T14:15:58.795Z,97068.38
2022-10-22T14:18:31.578Z,97062.84
2022-10-22T14:21:13.176Z,97070.13
2022-10-22T14:23:45.967Z,97075.38
2022-10-22T14:26:25.635Z,97072.59
2022-10-22T14:29:11.079Z,97070.31
2022-10-22T14:31:44.290Z,97067.63
2022-10-22T14:34:13.352Z,97064.25
2022-10-22T14:36:40.322Z,97069.91
2022-10-22T14:39:06.895Z,97066.84
2022-10-22T14:41:33.788Z,97068.16
2022-10-22T14:44:00.626Z,97073.41
2022-10-22T14:46:27.197Z,97066.34
2022-10-22T14:48:57.088Z,97061.00
2022-10-22T14:51:26.314Z,97064.88
2022-10-22T14:53:52.853Z,97070.53
2022-10-22T14:56:23.228Z,97066.69
2022-10-22T14:58:53.441Z,97065.16
2022-10-22T15:01:19.966Z,97055.41
2022-10-22T15:03:46.556Z,97058.91
2022-10-22T15:06:15.901Z,97054.97
2022-10-22T15:08:45.019Z,97048.13
2022-10-22T15:11:13.838Z,97061.56
2022-10-22T15:13:44.966Z,97058.22
2022-10-22T15:16:14.718Z,97060.38
2022-10-22T15:18:46.556Z,97059.31
2022-10-22T15:21:33.486Z,97054.94
2022-10-22T15:24:02.326Z,97067.56
2022-10-22T15:26:31.794Z,97067.44
2022-10-22T15:28:58.369Z,97073.09
2022-10-22T15:31:49.120Z,97082.09
2022-10-22T15:34:29.142Z,97072.19
2022-10-22T15:36:58.547Z,97067.06
2022-10-22T15:39:26.121Z,97076.81
2022-10-22T15:41:53.761Z,97074.53
2022-10-22T15:44:22.970Z,97069.06
2022-10-22T15:49:26.010Z,97076.53
2022-10-22T15:51:53.019Z,97075.78
2022-10-22T15:54:24.624Z,97074.88
2022-10-22T15:56:51.333Z,97075.47
2022-10-22T15:59:18.142Z,97077.44
2022-10-22T16:01:45.440Z,97081.28
2022-10-22T16:04:17.197Z,97070.19
2022-10-22T16:06:47.295Z,97079.91
2022-10-22T16:09:19.930Z,97086.19
2022-10-22T16:11:46.902Z,97080.56
2022-10-22T16:14:15.366Z,97079.19
2022-10-22T16:16:44.950Z,97076.59
2022-10-22T16:19:12.908Z,97073.34
2022-10-22T16:21:41.996Z,97082.16
2022-10-22T16:24:09.502Z,97078.97
2022-10-22T16:26:36.594Z,97079.41
2022-10-22T16:29:07.210Z,97070.44
2022-10-22T16:31:36.041Z,97070.28
2022-10-22T16:34:07.452Z,97068.56
2022-10-22T16:36:37.123Z,97067.78
2022-10-22T16:39:07.959Z,97069.00
2022-10-22T16:41:36.461Z,97074.78
2022-10-22T16:44:09.103Z,97078.56
2022-10-22T16:46:40.058Z,97068.03
2022-10-22T16:49:07.228Z,97070.91
2022-10-22T16:51:37.501Z,97081.69
2022-10-22T16:54:06.823Z,97079.38
2022-10-22T16:56:36.841Z,97090.44
2022-10-22T16:59:06.105Z,97100.28
2022-10-22T17:01:40.405Z,97099.03
2022-10-22T17:04:09.895Z,97097.47
2022-10-22T17:06:36.749Z,97094.66
2022-10-22T17:09:05.858Z,97101.72
2022-10-22T17:11:37.038Z,97080.94
2022-10-22T17:14:08.357Z,97103.72
2022-10-22T17:16:37.317Z,97110.53
2022-10-22T17:19:04.293Z,97111.31
2022-10-22T17:21:30.835Z,97101.69
2022-10-22T17:23:58.084Z,97097.31
2022-10-22T17:26:27.123Z,97092.19
2022-10-22T17:28:56.431Z,97107.59
2022-10-22T17:31:29.871Z,97107.75
2022-10-22T17:33:57.133Z,97106.00
2022-10-22T17:36:24.833Z,97100.75
2022-10-22T17:38:57.540Z,97104.44
2022-10-22T17:41:28.966Z,97110.19
2022-10-22T17:43:59.638Z,97105.66
2022-10-22T17:46:28.617Z,97107.09
2022-10-22T17:49:03.757Z,97109.72
2022-10-22T17:51:31.457Z,97114.75
2022-10-22T17:53:58.363Z,97105.03
2022-10-22T17:56:30.238Z,97109.22
2022-10-22T17:59:01.663Z,97105.31
2022-10-22T18:01:31.916Z,97111.72
2022-10-22T18:04:10.885Z,97114.78
2022-10-22T18:06:38.248Z,97117.41
2022-10-22T18:09:06.883Z,97125.50
2022-10-22T18:11:36.562Z,97125.41
2022-10-22T18:14:06.782Z,97123.75
2022-10-22T18:16:35.643Z,97122.22
2022-10-22T18:19:02.262Z,97113.16
2022-10-22T18:21:30.394Z,97116.66
2022-10-22T18:24:00.083Z,97107.50
2022-10-22T18:26:28.846Z,97113.41
2022-10-22T18:28:57.339Z,97128.88
2022-10-22T18:31:26.126Z,97119.81
2022-10-22T18:36:26.315Z,97125.50
2022-10-22T18:38:58.215Z,97127.47
2022-10-22T18:41:25.976Z,97119.81
2022-10-22T18:43:54.673Z,97132.06
2022-10-22T18:46:22.618Z,97120.81
2022-10-22T18:48:49.868Z,97127.69
2022-10-22T18:51:19.027Z,97129.31
2022-10-22T18:53:59.131Z,97136.31
2022-10-22T18:56:36.333Z,97128.69
2022-10-22T18:59:03.247Z,97131.50
2022-10-22T19:01:30.517Z,97132.06
2022-10-22T19:03:57.509Z,97135.88
2022-10-22T19:06:35.799Z,97146.53
2022-10-22T19:09:04.437Z,97134.53
2022-10-22T19:11:31.901Z,97133.22
2022-10-22T19:13:58.621Z,97137.91
2022-10-22T19:16:29.003Z,97114.22
2022-10-22T19:19:06.997Z,97143.00
2022-10-22T19:21:36.785Z,97132.66
2022-10-22T19:24:09.116Z,97141.78
2022-10-22T19:26:36.335Z,97139.06
2022-10-22T19:29:06.388Z,97136.09
2022-10-22T19:31:33.113Z,97136.34
2022-10-22T19:34:02.707Z,97136.66
2022-10-22T19:36:31.076Z,97131.66
2022-10-22T19:38:58.065Z,97127.84
2022-10-22T19:41:26.298Z,97125.94
2022-10-22T19:43:54.498Z,97127.50
2022-10-22T19:46:27.852Z,97126.66
2022-10-22T19:48:57.939Z,97121.69
2022-10-22T19:51:33.840Z,97126.03
2022-10-22T19:54:06.213Z,97122.31
2022-10-22T19:56:34.213Z,97116.75
2022-10-22T19:59:00.811Z,97114.66
2022-10-22T20:01:27.942Z,97110.00
2022-10-22T20:03:54.882Z,97114.31
2022-10-22T20:06:24.181Z,97103.84
2022-10-22T20:08:55.972Z,97112.50
2022-10-22T20:11:29.329Z,97111.88
2022-10-22T20:14:02.073Z,97122.00
2022-10-22T20:16:30.010Z,97118.22
2022-10-22T20:19:02.508Z,97130.91
2022-10-22T20:21:29.675Z,97133.00
2022-10-22T20:23:57.527Z,97132.16
2022-10-22T20:26:27.853Z,97126.38
2022-10-22T20:28:58.479Z,97129.75
2022-10-22T20:31:29.690Z,97123.81
2022-10-22T20:33:58.758Z,97099.72
2022-10-22T20:36:26.975Z,97079.06
2022-10-22T20:38:59.656Z,97088.69
2022-10-22T20:41:26.246Z,97106.47
2022-10-22T20:43:55.424Z,97107.31
2022-10-22T20:46:26.470Z,97116.53
2022-10-22T20:49:02.398Z,97131.31
2022-10-22T20:51:31.610Z,97138.38
2022-10-22T20:54:00.397Z,97145.34
2022-10-22T20:56:27.655Z,97135.84
2022-10-22T20:59:04.675Z,97142.47
2022-10-22T21:01:42.761Z,97140.59
2022-10-22T21:04:09.714Z,97134.03
2022-10-22T21:06:40.403Z,97109.50
2022-10-22T21:09:08.578Z,97130.66
2022-10-22T21:11:39.354Z,97130.38
2022-10-22T21:14:07.920Z,97126.59
2022-10-22T21:16:42.898Z,97130.91
2022-10-22T21:19:09.433Z,97130.22
2022-10-22T21:21:36.007Z,97125.56
2022-10-22T21:24:02.610Z,97117.38
2022-10-22T21:26:29.291Z,97117.81
2022-10-22T21:28:58.037Z,97116.44
2022-10-22T21:31:26.383Z,97128.84
2022-10-22T21:33:56.127Z,97131.31
2022-10-22T21:36:23.727Z,97130.81
2022-10-22T21:38:54.267Z,97135.31
2022-10-22T21:41:24.225Z,97128.16
2022-10-22T21:43:53.373Z,97130.88
2022-10-22T21:46:29.618Z,97133.28
2022-10-22T21:49:02.176Z,97134.38
2022-10-22T21:51:34.435Z,97130.56
2022-10-22T21:54:01.402Z,97133.03
2022-10-22T21:56:33.770Z,97127.09
2022-10-22T21:59:09.077Z,97126.97
2022-10-22T22:01:36.588Z,97113.28
2022-10-22T22:04:04.178Z,97115.34
2022-10-22T22:06:33.374Z,97120.44
2022-10-22T22:09:03.570Z,97124.19
2022-10-22T22:11:30.555Z,97115.31
2022-10-22T22:13:58.432Z,97114.31
2022-10-22T22:16:31.318Z,97116.03
2022-10-22T22:21:40.201Z,97107.13
2022-10-22T22:24:07.530Z,97108.56
2022-10-22T22:26:34.272Z,97104.25
2022-10-22T22:29:01.554Z,97112.41
2022-10-22T22:31:33.559Z,97108.00
2022-10-22T22:34:09.948Z,97096.66
2022-10-22T22:36:39.083Z,97098.06
2022-10-22T22:39:12.366Z,97100.03
2022-10-22T22:41:42.575Z,97094.53
2022-10-22T22:44:09.344Z,97091.38
2022-10-22T22:46:36.302Z,97085.06
2022-10-22T22:49:06.105Z,97091.72
2022-10-22T22:51:37.985Z,97098.84
2022-10-22T22:54:04.995Z,97094.78
2022-10-22T22:56:35.418Z,97093.66
2022-10-22T22:59:02.945Z,97100.78
2022-10-22T23:01:33.899Z,97113.25
2022-10-22T23:04:10.448Z,97111.72
2022-10-22T23:06:37.787Z,97096.16
2022-10-22T23:09:09.227Z,97108.81
2022-10-22T23:11:43.764Z,97104.53
2022-10-22T23:14:13.858Z,97111.00
2022-10-22T23:16:46.268Z,97103.38
2022-10-22T23:19:15.348Z,97102.03
2022-10-22T23:21:48.069Z,97103.31
2022-10-22T23:24:19.426Z,97100.25
2022-10-22T23:26:48.315Z,97095.91
2022-10-22T23:29:42.927Z,97096.56
2022-10-22T23:32:17.325Z,97095.53
2022-10-22T23:34:46.122Z,97093.75
2022-10-22T23:37:12.646Z,97087.75
2022-10-22T23:39:43.652Z,97083.41
2022-10-22T23:42:12.431Z,97090.78
2022-10-22T23:44:39.088Z,97090.19
2022-10-22T23:47:05.640Z,97085.69
2022-10-22T23:49:32.232Z,97088.56
2022-10-22T23:51:59.120Z,97088.91
2022-10-22T23:54:26.122Z,97086.03
2022-10-22T23:56:52.718Z,97082.41
2022-10-22T23:59:21.641Z,97084.28
